createdAt,value
2022-09-07T00:01:30.644Z,61.00
2022-09-07T00:04:33.314Z,61.55
2022-09-07T00:07:36.003Z,61.42
2022-09-07T00:10:40.039Z,61.23
2022-09-07T00:13:43.951Z,62.35
2022-09-07T00:16:46.577Z,62.35
2022-09-07T00:19:49.238Z,61.28
2022-09-07T00:22:51.836Z,61.93
2022-09-07T00:25:59.530Z,62.12
2022-09-07T00:29:04.068Z,62.35
2022-09-07T00:32:06.712Z,62.54
2022-09-07T00:35:10.207Z,61.83
2022-09-07T00:38:13.490Z,62.09
2022-09-07T00:41:19.309Z,62.43
2022-09-07T00:45:10.927Z,62.56
2022-09-07T00:48:20.987Z,63.30
2022-09-07T00:51:28.619Z,63.79
2022-09-07T00:54:36.954Z,63.74
2022-09-07T00:57:44.348Z,63.22
2022-09-07T01:00:48.565Z,62.87
2022-09-07T01:03:53.623Z,63.30
2022-09-07T01:06:56.734Z,63.50
2022-09-07T01:10:00.153Z,63.21
2022-09-07T01:13:04.138Z,63.19
2022-09-07T01:16:13.946Z,63.04
2022-09-07T01:19:58.840Z,63.67
2022-09-07T01:23:31.452Z,63.05
2022-09-07T01:27:12.224Z,62.67
2022-09-07T01:30:19.081Z,62.36
2022-09-07T01:33:41.005Z,62.39
2022-09-07T01:36:51.652Z,62.13
2022-09-07T01:40:09.118Z,61.32
2022-09-07T01:43:18.163Z,61.78
2022-09-07T01:46:27.504Z,61.10
2022-09-07T01:49:35.789Z,60.06
2022-09-07T01:52:45.261Z,60.74
2022-09-07T01:55:51.530Z,61.50
2022-09-07T01:58:58.197Z,60.06
2022-09-07T02:02:06.875Z,60.91
2022-09-07T02:05:14.498Z,60.26
2022-09-07T02:08:24.713Z,59.92
2022-09-07T02:11:34.589Z,59.45
2022-09-07T02:14:42.045Z,59.22
2022-09-07T02:17:52.356Z,59.93
2022-09-07T02:20:59.014Z,59.21
2022-09-07T02:24:06.388Z,59.50
2022-09-07T02:27:14.394Z,59.18
2022-09-07T02:30:17.519Z,59.69
2022-09-07T02:33:21.912Z,59.38
2022-09-07T02:36:30.373Z,59.03
2022-09-07T02:39:33.650Z,59.55
2022-09-07T02:42:37.717Z,59.27
2022-09-07T02:45:57.371Z,58.99
2022-09-07T02:49:10.080Z,59.10
2022-09-07T02:52:23.512Z,59.46
2022-09-07T02:55:36.340Z,59.54
2022-09-07T02:58:47.414Z,59.10
2022-09-07T03:02:01.265Z,58.55
2022-09-07T03:05:13.287Z,60.27
2022-09-07T03:08:20.029Z,59.52
2022-09-07T03:11:23.624Z,59.60
2022-09-07T03:14:30.224Z,59.71
2022-09-07T03:17:32.858Z,59.80
2022-09-07T03:20:36.824Z,60.53
2022-09-07T03:23:39.503Z,59.74
2022-09-07T03:26:46.078Z,59.59
2022-09-07T03:29:48.721Z,60.54
2022-09-07T03:32:51.378Z,60.04
2022-09-07T03:36:02.574Z,60.87
2022-09-07T03:39:07.029Z,60.32
2022-09-07T03:42:09.794Z,60.22
2022-09-07T03:45:12.478Z,59.63
2022-09-07T03:48:15.120Z,60.44
2022-09-07T03:51:19.697Z,61.61
2022-09-07T03:54:22.754Z,61.97
2022-09-07T03:57:25.366Z,60.00
2022-09-07T04:00:27.980Z,60.77
2022-09-07T04:03:30.582Z,60.35
2022-09-07T04:06:34.720Z,60.32
2022-09-07T04:09:37.305Z,60.63
2022-09-07T04:12:39.912Z,60.47
2022-09-07T04:15:42.498Z,60.07
2022-09-07T04:18:45.326Z,60.43
2022-09-07T04:21:49.310Z,59.88
2022-09-07T04:24:51.902Z,60.57
2022-09-07T04:27:54.880Z,60.97
2022-09-07T04:31:01.382Z,60.62
2022-09-07T04:34:05.196Z,60.08
2022-09-07T04:37:09.110Z,60.16
2022-09-07T04:40:12.395Z,60.90
2022-09-07T04:43:15.042Z,60.63
2022-09-07T04:46:21.657Z,60.57
2022-09-07T04:49:24.303Z,60.83
2022-09-07T04:52:28.251Z,60.19
2022-09-07T04:55:30.848Z,59.82
2022-09-07T04:58:33.464Z,59.92
2022-09-07T05:01:36.159Z,60.60
2022-09-07T05:04:38.793Z,60.05
2022-09-07T05:07:42.782Z,59.73
2022-09-07T05:10:52.202Z,60.97
2022-09-07T05:13:56.666Z,60.77
2022-09-07T05:16:59.338Z,60.23
2022-09-07T05:20:02.022Z,60.44
2022-09-07T05:23:05.993Z,60.12
2022-09-07T05:26:09.356Z,60.23
2022-09-07T05:32:34.737Z,60.88
2022-09-07T05:35:37.328Z,61.64
2022-09-07T05:38:41.355Z,61.69
2022-09-07T05:41:44.006Z,62.74
2022-09-07T05:44:46.638Z,62.69
2022-09-07T05:47:50.789Z,63.74
2022-09-07T05:50:54.147Z,63.39
2022-09-07T05:53:58.612Z,63.17
2022-09-07T05:57:03.088Z,62.87
2022-09-07T06:00:06.425Z,61.62
2022-09-07T06:03:09.260Z,62.26
2022-09-07T06:06:13.362Z,62.08
2022-09-07T06:09:17.334Z,62.72
2022-09-07T06:12:20.044Z,62.53
2022-09-07T06:15:22.654Z,62.74
2022-09-07T06:18:25.249Z,64.24
2022-09-07T06:21:27.863Z,65.67
2022-09-07T06:24:31.833Z,68.47
2022-09-07T06:27:34.784Z,68.58
2022-09-07T06:30:37.520Z,72.47
2022-09-07T06:33:40.633Z,73.50
2022-09-07T06:36:43.220Z,75.27
2022-09-07T06:39:49.345Z,76.84
2022-09-07T06:42:52.058Z,76.47
2022-09-07T06:45:55.385Z,76.09
2022-09-07T06:48:58.120Z,75.73
2022-09-07T06:52:00.732Z,75.69
2022-09-07T06:55:05.045Z,75.85
2022-09-07T06:58:08.516Z,73.93
2022-09-07T07:01:14.558Z,75.56
2022-09-07T07:04:17.185Z,74.70
2022-09-07T07:07:19.792Z,74.82
2022-09-07T07:10:24.840Z,72.82
2022-09-07T07:13:27.949Z,74.29
2022-09-07T07:16:30.651Z,74.96
2022-09-07T07:19:33.356Z,73.24
2022-09-07T07:22:46.488Z,74.04
2022-09-07T07:25:51.090Z,76.71
2022-09-07T07:29:03.548Z,77.79
2022-09-07T07:32:06.874Z,79.23
2022-09-07T07:35:18.200Z,78.67
2022-09-07T07:48:17.595Z,79.78
2022-09-07T07:51:20.553Z,78.31
2022-09-07T07:54:23.120Z,80.85
2022-09-07T07:57:27.046Z,80.58
2022-09-07T08:00:50.697Z,83.39
2022-09-07T08:03:52.541Z,85.33
2022-09-07T08:06:55.083Z,87.19
2022-09-07T08:09:57.681Z,87.23
2022-09-07T08:13:01.611Z,88.31
2022-09-07T08:16:05.413Z,89.36
2022-09-07T08:19:07.896Z,89.75
2022-09-07T08:22:11.659Z,90.13
2022-09-07T08:25:14.148Z,90.62
2022-09-07T08:28:17.971Z,89.14
2022-09-07T08:31:21.788Z,90.89
2022-09-07T08:34:24.286Z,90.35
2022-09-07T08:37:26.780Z,89.20
2022-09-07T08:40:30.170Z,88.71
2022-09-07T08:43:49.936Z,89.33
2022-09-07T08:46:57.413Z,89.57
2022-09-07T08:50:05.198Z,88.60
2022-09-07T08:53:13.514Z,89.50
2022-09-07T08:56:23.243Z,88.70
2022-09-07T08:59:36.727Z,87.82
2022-09-07T09:02:43.989Z,86.90
2022-09-07T09:06:01.619Z,86.93
2022-09-07T09:09:17.493Z,84.87
2022-09-07T09:12:36.833Z,84.57
2022-09-07T09:15:59.345Z,84.17
2022-09-07T09:19:15.399Z,83.19
2022-09-07T09:22:20.305Z,80.26
2022-09-07T09:25:27.682Z,82.24
2022-09-07T09:28:32.330Z,81.21
2022-09-07T09:31:36.989Z,81.10
2022-09-07T09:34:39.525Z,78.19
2022-09-07T09:37:43.538Z,78.46
2022-09-07T09:40:53.537Z,77.12
2022-09-07T09:43:58.097Z,76.70
2022-09-07T09:54:02.597Z,73.97
2022-09-07T09:57:05.691Z,71.78
2022-09-07T10:00:27.878Z,69.43
2022-09-07T10:07:00.083Z,65.71
2022-09-07T10:10:02.662Z,60.32
2022-09-07T10:13:08.663Z,61.96
2022-09-07T10:16:12.369Z,61.95
2022-09-07T10:19:30.836Z,61.55
2022-09-07T10:22:35.913Z,61.70
2022-09-07T10:25:40.469Z,58.07
2022-09-07T10:32:26.316Z,55.69
2022-09-07T10:35:34.282Z,55.73
2022-09-07T10:38:43.455Z,52.56
2022-09-07T10:41:54.762Z,51.89
2022-09-07T10:45:09.051Z,52.53
2022-09-07T10:48:18.125Z,49.56
2022-09-07T10:51:30.981Z,50.50
2022-09-07T10:54:43.489Z,49.58
2022-09-07T10:57:59.437Z,48.30
2022-09-07T11:01:12.526Z,50.04
2022-09-07T11:04:41.673Z,50.03
2022-09-07T11:08:02.173Z,48.67
2022-09-07T11:11:17.317Z,48.65
2022-09-07T11:14:25.336Z,47.38
2022-09-07T11:17:30.057Z,45.62
2022-09-07T11:20:37.449Z,46.30
2022-09-07T11:23:45.164Z,46.13
2022-09-07T11:26:51.589Z,45.34
2022-09-07T11:30:00.415Z,46.37
2022-09-07T11:33:10.970Z,44.32
2022-09-07T11:36:17.309Z,44.01
2022-09-07T11:39:26.476Z,44.58
2022-09-07T11:42:50.342Z,44.38
2022-09-07T11:45:57.752Z,45.27
2022-09-07T11:49:04.269Z,45.42
2022-09-07T11:52:11.881Z,46.58
2022-09-07T11:55:21.481Z,47.94
2022-09-07T11:58:50.178Z,46.57
2022-09-07T12:02:12.280Z,47.22
2022-09-07T12:05:26.187Z,47.80
2022-09-07T12:08:41.715Z,47.28
2022-09-07T12:12:04.811Z,47.91
2022-09-07T12:15:19.850Z,47.78
2022-09-07T12:18:36.856Z,47.88
2022-09-07T12:21:43.262Z,48.85
2022-09-07T12:24:48.349Z,47.67
2022-09-07T12:27:52.970Z,47.75
2022-09-07T12:30:58.543Z,48.21
2022-09-07T12:34:34.343Z,46.57
2022-09-07T12:37:40.442Z,45.90
2022-09-07T12:40:59.880Z,44.82
2022-09-07T12:44:16.693Z,43.99
2022-09-07T12:47:29.265Z,44.81
2022-09-07T12:50:39.270Z,42.85
2022-09-07T12:53:57.611Z,42.21
2022-09-07T12:57:30.891Z,41.75
2022-09-07T13:00:49.175Z,42.18
2022-09-07T13:04:23.108Z,42.18
2022-09-07T13:07:42.396Z,41.86
2022-09-07T13:10:47.077Z,41.82
2022-09-07T13:14:03.936Z,42.38
2022-09-07T13:17:44.364Z,42.58
2022-09-07T13:21:06.964Z,42.45
2022-09-07T13:24:49.801Z,41.73
2022-09-07T13:27:55.601Z,41.84
2022-09-07T13:31:14.901Z,41.30
2022-09-07T13:34:48.500Z,43.79
2022-09-07T13:37:53.712Z,42.23
2022-09-07T13:41:00.422Z,42.72
2022-09-07T13:44:05.662Z,43.29
2022-09-07T13:47:21.580Z,43.71
2022-09-07T13:50:40.123Z,43.53
2022-09-07T13:53:57.613Z,44.46
2022-09-07T13:57:12.590Z,47.00
2022-09-07T14:00:16.605Z,46.67
2022-09-07T14:03:19.128Z,47.95
2022-09-07T14:06:32.523Z,48.26
2022-09-07T14:09:35.834Z,50.92
2022-09-07T14:12:44.018Z,52.26
2022-09-07T14:15:48.844Z,51.57
2022-09-07T14:18:51.409Z,52.98
2022-09-07T14:22:00.180Z,52.33
2022-09-07T14:25:05.721Z,53.68
2022-09-07T14:28:30.297Z,55.25
2022-09-07T14:31:33.219Z,55.73
2022-09-07T14:34:38.186Z,56.91
2022-09-07T14:37:42.702Z,57.30
2022-09-07T14:40:45.273Z,57.79
2022-09-07T14:43:56.030Z,59.57
2022-09-07T14:47:00.553Z,58.70
2022-09-07T14:50:05.803Z,57.86
2022-09-07T14:56:41.516Z,58.23
2022-09-07T14:59:46.280Z,58.47
2022-09-07T15:02:48.832Z,60.00
2022-09-07T15:05:51.622Z,60.18
2022-09-07T15:08:55.520Z,59.89
2022-09-07T15:12:15.006Z,60.60
2022-09-07T15:15:26.221Z,61.88
2022-09-07T15:18:54.477Z,61.33
2022-09-07T15:21:57.142Z,61.71
2022-09-07T15:25:01.121Z,61.52
2022-09-07T15:28:04.005Z,60.89
2022-09-07T15:34:29.476Z,61.50
2022-09-07T15:41:22.033Z,62.94
2022-09-07T15:44:25.019Z,62.24
2022-09-07T15:47:50.402Z,63.41
2022-09-07T15:50:51.753Z,63.17
2022-09-07T15:54:13.182Z,63.85
2022-09-07T16:00:40.867Z,63.77
2022-09-07T16:03:43.513Z,64.82
2022-09-07T16:06:48.149Z,64.77
2022-09-07T16:09:52.463Z,64.83
2022-09-07T16:13:10.457Z,64.63
2022-09-07T16:16:15.669Z,66.36
2022-09-07T16:19:21.655Z,66.97
2022-09-07T16:25:57.958Z,68.86
2022-09-07T16:29:02.202Z,69.79
2022-09-07T16:35:27.503Z,70.30
2022-09-07T16:38:47.381Z,70.29
2022-09-07T16:41:50.438Z,70.76
2022-09-07T16:44:54.857Z,71.73
2022-09-07T16:47:57.751Z,72.28
2022-09-07T16:51:02.596Z,72.84
2022-09-07T16:54:06.477Z,73.59
2022-09-07T16:57:09.119Z,73.03
2022-09-07T17:00:15.165Z,74.10
2022-09-07T17:03:17.767Z,74.57
2022-09-07T17:06:23.566Z,74.17
2022-09-07T17:09:28.582Z,74.69
2022-09-07T17:12:31.406Z,75.03
2022-09-07T17:15:35.620Z,75.27
2022-09-07T17:22:01.923Z,76.38
2022-09-07T17:25:05.074Z,76.54
2022-09-07T17:28:07.701Z,76.91
2022-09-07T17:32:23.721Z,76.88
2022-09-07T17:34:36.776Z,77.39
2022-09-07T17:37:39.322Z,77.92
2022-09-07T17:40:43.951Z,78.39
2022-09-07T17:43:47.127Z,79.25
2022-09-07T17:46:51.154Z,79.63
2022-09-07T17:49:53.833Z,79.88
2022-09-07T17:52:56.602Z,79.89
2022-09-07T17:55:59.241Z,80.50
2022-09-07T18:02:26.800Z,80.64
2022-09-07T18:05:29.374Z,81.21
2022-09-07T18:08:32.055Z,80.91
2022-09-07T18:11:50.912Z,81.11
2022-09-07T18:14:53.730Z,81.46
2022-09-07T18:17:58.515Z,81.77
2022-09-07T18:21:01.133Z,82.04
2022-09-07T18:24:07.463Z,82.97
2022-09-07T18:27:10.169Z,83.01
2022-09-07T18:30:13.773Z,83.19
2022-09-07T18:33:17.803Z,84.14
2022-09-07T18:36:20.703Z,84.44
2022-09-07T18:39:23.340Z,84.01
2022-09-07T18:42:25.946Z,83.81
2022-09-07T18:45:28.649Z,84.08
2022-09-07T18:48:33.070Z,84.25
2022-09-07T18:52:51.573Z,84.19
2022-09-07T18:54:58.166Z,84.98
2022-09-07T18:58:02.726Z,84.93
2022-09-07T19:01:06.343Z,84.97
2022-09-07T19:04:10.589Z,85.73
2022-09-07T19:07:13.400Z,86.23
2022-09-07T19:10:16.760Z,86.16
2022-09-07T19:13:19.398Z,86.46
2022-09-07T19:16:22.723Z,86.57
2022-09-07T19:19:26.811Z,87.16
2022-09-07T19:22:29.588Z,87.25
2022-09-07T19:25:32.223Z,87.44
2022-09-07T19:28:35.261Z,87.14
2022-09-07T19:31:37.909Z,87.61
2022-09-07T19:34:43.624Z,88.25
2022-09-07T19:37:46.245Z,89.18
2022-09-07T19:40:56.299Z,88.75
2022-09-07T19:43:59.086Z,89.13
2022-09-07T19:47:02.037Z,89.15
2022-09-07T19:50:07.030Z,89.80
2022-09-07T19:53:09.638Z,89.90
2022-09-07T19:56:14.158Z,89.98
2022-09-07T19:59:19.532Z,90.09
2022-09-07T20:02:22.102Z,90.15
2022-09-07T20:05:29.445Z,90.39
2022-09-07T20:08:32.044Z,90.69
2022-09-07T20:11:35.645Z,91.05
2022-09-07T20:14:38.170Z,91.74
2022-09-07T20:17:40.697Z,91.82
2022-09-07T20:20:44.624Z,92.21
2022-09-07T20:23:47.314Z,92.24
2022-09-07T20:26:50.366Z,92.09
2022-09-07T20:29:53.194Z,92.33
2022-09-07T20:32:55.771Z,93.66
2022-09-07T20:36:04.694Z,94.54
2022-09-07T20:39:07.166Z,94.38
2022-09-07T20:42:09.829Z,94.48
2022-09-07T20:45:12.323Z,94.33
2022-09-07T20:48:15.330Z,94.60
2022-09-07T20:51:21.247Z,94.19
2022-09-07T20:54:23.798Z,94.09
2022-09-07T20:57:26.286Z,93.48
2022-09-07T21:00:29.397Z,93.81
2022-09-07T21:03:31.979Z,94.33
2022-09-07T21:06:35.784Z,94.43
2022-09-07T21:09:38.248Z,94.38
2022-09-07T21:12:40.725Z,95.13
2022-09-07T21:15:45.047Z,95.44
2022-09-07T21:18:47.567Z,95.78
2022-09-07T21:21:51.391Z,95.93
2022-09-07T21:24:53.912Z,96.19
2022-09-07T21:27:56.511Z,95.63
2022-09-07T21:31:00.509Z,96.60
2022-09-07T21:34:03.456Z,96.39
2022-09-07T21:37:07.293Z,96.10
2022-09-07T21:40:10.658Z,96.18
2022-09-07T21:43:13.233Z,96.46
2022-09-07T21:46:18.507Z,96.12
2022-09-07T21:49:21.040Z,96.38
2022-09-07T21:52:24.939Z,96.06
2022-09-07T21:55:27.430Z,97.55
2022-09-07T21:58:30.611Z,98.93
2022-09-07T22:01:34.254Z,99.38
2022-09-07T22:04:36.816Z,99.23
2022-09-07T22:07:40.651Z,100.00
2022-09-07T22:10:43.617Z,99.50
2022-09-07T22:13:46.515Z,99.30
2022-09-07T22:16:48.970Z,98.73
2022-09-07T22:19:51.553Z,98.97
2022-09-07T22:22:55.358Z,99.18
2022-09-07T22:25:57.847Z,99.31
2022-09-07T22:29:00.476Z,98.66
2022-09-07T22:32:03.427Z,98.56
2022-09-07T22:35:06.795Z,98.68
2022-09-07T22:38:10.632Z,99.03
2022-09-07T22:41:15.426Z,98.83
2022-09-07T22:44:19.537Z,99.29
2022-09-07T22:47:22.029Z,98.87
2022-09-07T22:50:24.520Z,99.46
2022-09-07T22:53:28.953Z,98.52
2022-09-07T22:56:33.878Z,98.62
2022-09-07T22:59:36.370Z,99.32
2022-09-07T23:02:38.844Z,98.85
2022-09-07T23:05:41.378Z,98.33
2022-09-07T23:08:45.226Z,99.93
2022-09-07T23:11:48.944Z,99.36
2022-09-07T23:14:51.443Z,99.18
2022-09-07T23:17:53.937Z,99.70
2022-09-07T23:21:00.416Z,98.38
2022-09-07T23:24:05.027Z,99.03
2022-09-07T23:27:07.482Z,99.24
2022-09-07T23:30:11.631Z,98.44
2022-09-07T23:33:14.265Z,98.79
2022-09-07T23:36:17.453Z,98.74
2022-09-07T23:39:21.405Z,98.65
2022-09-07T23:42:23.882Z,97.61
2022-09-07T23:45:27.111Z,98.21
2022-09-07T23:48:29.710Z,98.19
2022-09-07T23:51:32.181Z,98.53
2022-09-07T23:54:35.995Z,98.96
2022-09-07T23:57:39.193Z,100.00
